sensor_id;sensor_type;location;lat;lon;timestamp;P1;durP1;ratioP1;P2;durP2;ratioP2
67869;SDS011;54673;52.262;6.830;2023-08-21T00:02:23;3.28;;;1.50;;
67869;SDS011;54673;52.262;6.830;2023-08-21T00:04:52;3.20;;;1.27;;
67869;SDS011;54673;52.262;6.830;2023-08-21T00:07:19;7.20;;;1.02;;
67869;SDS011;54673;52.262;6.830;2023-08-21T00:09:44;2.47;;;1.03;;
67869;SDS011;54673;52.262;6.830;2023-08-21T00:12:10;3.97;;;1.40;;
67869;SDS011;54673;52.262;6.830;2023-08-21T00:14:35;3.70;;;1.40;;
67869;SDS011;54673;52.262;6.830;2023-08-21T00:17:01;1.80;;;1.10;;
67869;SDS011;54673;52.262;6.830;2023-08-21T00:19:28;2.50;;;1.20;;
67869;SDS011;54673;52.262;6.830;2023-08-21T00:21:54;1.20;;;1.00;;
67869;SDS011;54673;52.262;6.830;2023-08-21T00:24:20;2.47;;;1.10;;
67869;SDS011;54673;52.262;6.830;2023-08-21T00:26:45;2.73;;;1.10;;
67869;SDS011;54673;52.262;6.830;2023-08-21T00:29:11;2.42;;;1.48;;
67869;SDS011;54673;52.262;6.830;2023-08-21T00:31:37;5.97;;;1.40;;
67869;SDS011;54673;52.262;6.830;2023-08-21T00:34:02;3.53;;;1.50;;
67869;SDS011;54673;52.262;6.830;2023-08-21T00:36:28;2.07;;;1.40;;
67869;SDS011;54673;52.262;6.830;2023-08-21T00:38:54;5.40;;;1.10;;
67869;SDS011;54673;52.262;6.830;2023-08-21T00:41:19;3.23;;;1.30;;
67869;SDS011;54673;52.262;6.830;2023-08-21T00:43:45;4.07;;;1.20;;
67869;SDS011;54673;52.262;6.830;2023-08-21T00:46:10;2.03;;;1.27;;
67869;SDS011;54673;52.262;6.830;2023-08-21T00:48:36;4.17;;;1.10;;
67869;SDS011;54673;52.262;6.830;2023-08-21T00:51:03;3.65;;;1.40;;
67869;SDS011;54673;52.262;6.830;2023-08-21T00:53:30;1.13;;;0.80;;
67869;SDS011;54673;52.262;6.830;2023-08-21T00:55:56;4.50;;;1.30;;
67869;SDS011;54673;52.262;6.830;2023-08-21T00:58:21;5.57;;;1.20;;
67869;SDS011;54673;52.262;6.830;2023-08-21T01:00:48;1.97;;;1.17;;
67869;SDS011;54673;52.262;6.830;2023-08-21T01:03:15;1.83;;;0.90;;
67869;SDS011;54673;52.262;6.830;2023-08-21T01:05:41;3.42;;;1.10;;
67869;SDS011;54673;52.262;6.830;2023-08-21T01:08:10;2.97;;;1.10;;
67869;SDS011;54673;52.262;6.830;2023-08-21T01:15:52;3.13;;;1.17;;
67869;SDS011;54673;52.262;6.830;2023-08-21T01:18:19;2.75;;;1.27;;
67869;SDS011;54673;52.262;6.830;2023-08-21T01:20:46;3.47;;;1.40;;
67869;SDS011;54673;52.262;6.830;2023-08-21T01:26:00;1.97;;;0.90;;
67869;SDS011;54673;52.262;6.830;2023-08-21T01:28:26;1.63;;;1.10;;
67869;SDS011;54673;52.262;6.830;2023-08-21T01:30:55;2.75;;;1.10;;
67869;SDS011;54673;52.262;6.830;2023-08-21T01:33:42;2.93;;;1.03;;
67869;SDS011;54673;52.262;6.830;2023-08-21T01:36:12;2.63;;;1.00;;
67869;SDS011;54673;52.262;6.830;2023-08-21T01:38:39;1.95;;;0.90;;
67869;SDS011;54673;52.262;6.830;2023-08-21T01:41:05;4.20;;;1.40;;
67869;SDS011;54673;52.262;6.830;2023-08-21T01:43:31;2.80;;;1.05;;
67869;SDS011;54673;52.262;6.830;2023-08-21T01:45:56;3.10;;;1.10;;
67869;SDS011;54673;52.262;6.830;2023-08-21T01:48:22;1.88;;;1.30;;
67869;SDS011;54673;52.262;6.830;2023-08-21T01:50:48;2.93;;;1.20;;
67869;SDS011;54673;52.262;6.830;2023-08-21T01:53:13;1.83;;;0.98;;
67869;SDS011;54673;52.262;6.830;2023-08-21T01:55:39;1.37;;;1.13;;
67869;SDS011;54673;52.262;6.830;2023-08-21T01:58:04;1.73;;;1.00;;
67869;SDS011;54673;52.262;6.830;2023-08-21T02:00:30;2.87;;;1.20;;
67869;SDS011;54673;52.262;6.830;2023-08-21T02:02:56;2.23;;;0.80;;
67869;SDS011;54673;52.262;6.830;2023-08-21T02:05:21;3.63;;;1.13;;
67869;SDS011;54673;52.262;6.830;2023-08-21T02:07:47;2.97;;;1.00;;
67869;SDS011;54673;52.262;6.830;2023-08-21T02:10:12;2.53;;;1.15;;
67869;SDS011;54673;52.262;6.830;2023-08-21T02:12:38;1.30;;;1.00;;
67869;SDS011;54673;52.262;6.830;2023-08-21T02:15:04;2.75;;;1.02;;
67869;SDS011;54673;52.262;6.830;2023-08-21T02:17:30;1.75;;;1.00;;
67869;SDS011;54673;52.262;6.830;2023-08-21T02:19:57;1.70;;;0.90;;
67869;SDS011;54673;52.262;6.830;2023-08-21T02:22:22;2.08;;;1.00;;
67869;SDS011;54673;52.262;6.830;2023-08-21T02:24:48;3.47;;;0.93;;
67869;SDS011;54673;52.262;6.830;2023-08-21T02:27:14;3.60;;;0.93;;
67869;SDS011;54673;52.262;6.830;2023-08-21T02:29:39;2.65;;;1.50;;
67869;SDS011;54673;52.262;6.830;2023-08-21T02:32:05;2.50;;;1.00;;
67869;SDS011;54673;52.262;6.830;2023-08-21T02:34:30;1.23;;;0.95;;
67869;SDS011;54673;52.262;6.830;2023-08-21T02:36:56;1.73;;;0.80;;
67869;SDS011;54673;52.262;6.830;2023-08-21T02:39:23;2.47;;;1.17;;
67869;SDS011;54673;52.262;6.830;2023-08-21T02:41:49;2.93;;;1.27;;
67869;SDS011;54673;52.262;6.830;2023-08-21T02:44:14;5.30;;;1.20;;
67869;SDS011;54673;52.262;6.830;2023-08-21T02:46:40;1.70;;;1.20;;
67869;SDS011;54673;52.262;6.830;2023-08-21T02:49:06;2.15;;;0.90;;
67869;SDS011;54673;52.262;6.830;2023-08-21T02:51:31;2.40;;;1.40;;
67869;SDS011;54673;52.262;6.830;2023-08-21T02:53:57;1.63;;;1.00;;
67869;SDS011;54673;52.262;6.830;2023-08-21T02:56:22;1.60;;;0.87;;
67869;SDS011;54673;52.262;6.830;2023-08-21T02:58:48;2.03;;;0.90;;
67869;SDS011;54673;52.262;6.830;2023-08-21T03:01:13;3.00;;;1.15;;
67869;SDS011;54673;52.262;6.830;2023-08-21T03:03:39;3.03;;;1.23;;
67869;SDS011;54673;52.262;6.830;2023-08-21T03:06:04;6.30;;;1.27;;
67869;SDS011;54673;52.262;6.830;2023-08-21T03:08:30;4.17;;;0.93;;
67869;SDS011;54673;52.262;6.830;2023-08-21T03:10:56;1.50;;;0.85;;
67869;SDS011;54673;52.262;6.830;2023-08-21T03:13:22;2.63;;;1.30;;
67869;SDS011;54673;52.262;6.830;2023-08-21T03:15:47;3.13;;;1.40;;
67869;SDS011;54673;52.262;6.830;2023-08-21T03:18:13;1.35;;;0.70;;
67869;SDS011;54673;52.262;6.830;2023-08-21T03:20:43;1.73;;;1.00;;
67869;SDS011;54673;52.262;6.830;2023-08-21T03:23:10;2.67;;;0.90;;
67869;SDS011;54673;52.262;6.830;2023-08-21T03:25:36;2.50;;;0.93;;
67869;SDS011;54673;52.262;6.830;2023-08-21T03:28:01;1.88;;;0.90;;
67869;SDS011;54673;52.262;6.830;2023-08-21T03:30:27;2.40;;;1.20;;
67869;SDS011;54673;52.262;6.830;2023-08-21T03:32:52;2.92;;;1.10;;
67869;SDS011;54673;52.262;6.830;2023-08-21T03:35:18;2.53;;;0.90;;
67869;SDS011;54673;52.262;6.830;2023-08-21T03:37:44;2.33;;;1.20;;
67869;SDS011;54673;52.262;6.830;2023-08-21T03:40:09;1.73;;;1.08;;
67869;SDS011;54673;52.262;6.830;2023-08-21T03:42:35;6.10;;;1.20;;
67869;SDS011;54673;52.262;6.830;2023-08-21T03:45:01;2.05;;;1.10;;
67869;SDS011;54673;52.262;6.830;2023-08-21T03:47:29;2.40;;;1.13;;
67869;SDS011;54673;52.262;6.830;2023-08-21T03:49:55;2.90;;;1.10;;
67869;SDS011;54673;52.262;6.830;2023-08-21T03:52:21;2.50;;;1.40;;
67869;SDS011;54673;52.262;6.830;2023-08-21T03:54:46;3.42;;;1.13;;
67869;SDS011;54673;52.262;6.830;2023-08-21T03:57:12;2.43;;;0.87;;
67869;SDS011;54673;52.262;6.830;2023-08-21T03:59:38;3.67;;;1.00;;
67869;SDS011;54673;52.262;6.830;2023-08-21T04:02:03;2.93;;;1.23;;
67869;SDS011;54673;52.262;6.830;2023-08-21T04:04:29;4.15;;;1.15;;
67869;SDS011;54673;52.262;6.830;2023-08-21T04:06:54;2.27;;;0.93;;
67869;SDS011;54673;52.262;6.830;2023-08-21T04:09:20;1.58;;;1.10;;
67869;SDS011;54673;52.262;6.830;2023-08-21T04:11:46;6.20;;;1.53;;
67869;SDS011;54673;52.262;6.830;2023-08-21T04:14:11;2.90;;;1.03;;
67869;SDS011;54673;52.262;6.830;2023-08-21T04:16:37;2.50;;;1.02;;
67869;SDS011;54673;52.262;6.830;2023-08-21T04:19:02;2.37;;;1.07;;
67869;SDS011;54673;52.262;6.830;2023-08-21T04:21:28;4.40;;;1.50;;
67869;SDS011;54673;52.262;6.830;2023-08-21T04:23:54;3.33;;;1.27;;
67869;SDS011;54673;52.262;6.830;2023-08-21T04:26:20;2.70;;;0.98;;
67869;SDS011;54673;52.262;6.830;2023-08-21T04:28:46;1.97;;;1.20;;
67869;SDS011;54673;52.262;6.830;2023-08-21T04:31:11;2.17;;;1.20;;
67869;SDS011;54673;52.262;6.830;2023-08-21T04:33:37;2.30;;;1.00;;
67869;SDS011;54673;52.262;6.830;2023-08-21T04:36:03;1.67;;;1.30;;
67869;SDS011;54673;52.262;6.830;2023-08-21T04:38:28;1.77;;;1.00;;
67869;SDS011;54673;52.262;6.830;2023-08-21T04:40:54;1.67;;;1.00;;
67869;SDS011;54673;52.262;6.830;2023-08-21T04:43:19;3.13;;;1.10;;
67869;SDS011;54673;52.262;6.830;2023-08-21T04:45:48;1.30;;;0.90;;
67869;SDS011;54673;52.262;6.830;2023-08-21T04:48:18;2.55;;;1.00;;
67869;SDS011;54673;52.262;6.830;2023-08-21T04:50:45;2.03;;;1.00;;
67869;SDS011;54673;52.262;6.830;2023-08-21T04:53:11;2.37;;;1.27;;
67869;SDS011;54673;52.262;6.830;2023-08-21T04:55:36;2.20;;;1.10;;
67869;SDS011;54673;52.262;6.830;2023-08-21T04:58:05;3.35;;;1.40;;
67869;SDS011;54673;52.262;6.830;2023-08-21T05:00:31;1.30;;;1.07;;
67869;SDS011;54673;52.262;6.830;2023-08-21T05:02:57;3.30;;;1.15;;
67869;SDS011;54673;52.262;6.830;2023-08-21T05:05:22;3.10;;;1.30;;
67869;SDS011;54673;52.262;6.830;2023-08-21T05:07:48;3.45;;;1.17;;
67869;SDS011;54673;52.262;6.830;2023-08-21T05:10:14;2.30;;;0.90;;
67869;SDS011;54673;52.262;6.830;2023-08-21T05:12:39;1.95;;;1.17;;
67869;SDS011;54673;52.262;6.830;2023-08-21T05:15:05;1.93;;;1.30;;
67869;SDS011;54673;52.262;6.830;2023-08-21T05:17:31;2.90;;;1.25;;
67869;SDS011;54673;52.262;6.830;2023-08-21T05:19:56;1.37;;;0.83;;
67869;SDS011;54673;52.262;6.830;2023-08-21T05:22:22;4.70;;;1.13;;
67869;SDS011;54673;52.262;6.830;2023-08-21T05:24:47;2.75;;;1.20;;
67869;SDS011;54673;52.262;6.830;2023-08-21T05:27:13;1.90;;;1.10;;
67869;SDS011;54673;52.262;6.830;2023-08-21T05:29:39;1.58;;;1.00;;
67869;SDS011;54673;52.262;6.830;2023-08-21T05:32:04;2.70;;;1.33;;
67869;SDS011;54673;52.262;6.830;2023-08-21T05:34:30;3.60;;;1.67;;
67869;SDS011;54673;52.262;6.830;2023-08-21T05:36:56;3.47;;;1.30;;
67869;SDS011;54673;52.262;6.830;2023-08-21T05:39:22;2.80;;;1.17;;
67869;SDS011;54673;52.262;6.830;2023-08-21T05:41:47;2.33;;;1.30;;
67869;SDS011;54673;52.262;6.830;2023-08-21T05:44:13;3.28;;;1.42;;
67869;SDS011;54673;52.262;6.830;2023-08-21T05:46:38;3.50;;;1.40;;
67869;SDS011;54673;52.262;6.830;2023-08-21T05:49:04;3.03;;;1.40;;
67869;SDS011;54673;52.262;6.830;2023-08-21T05:51:30;1.57;;;0.97;;
67869;SDS011;54673;52.262;6.830;2023-08-21T05:53:56;1.85;;;0.90;;
67869;SDS011;54673;52.262;6.830;2023-08-21T05:56:21;2.10;;;1.13;;
67869;SDS011;54673;52.262;6.830;2023-08-21T05:58:48;2.83;;;1.27;;
67869;SDS011;54673;52.262;6.830;2023-08-21T06:01:13;2.07;;;1.10;;
67869;SDS011;54673;52.262;6.830;2023-08-21T06:03:39;1.60;;;1.20;;
67869;SDS011;54673;52.262;6.830;2023-08-21T06:06:05;2.83;;;1.20;;
67869;SDS011;54673;52.262;6.830;2023-08-21T06:08:30;2.63;;;1.30;;
67869;SDS011;54673;52.262;6.830;2023-08-21T06:10:56;2.38;;;1.02;;
67869;SDS011;54673;52.262;6.830;2023-08-21T06:13:22;6.50;;;2.30;;
67869;SDS011;54673;52.262;6.830;2023-08-21T06:15:47;2.93;;;1.20;;
67869;SDS011;54673;52.262;6.830;2023-08-21T06:18:13;4.87;;;1.90;;
67869;SDS011;54673;52.262;6.830;2023-08-21T06:20:43;5.13;;;1.95;;
67869;SDS011;54673;52.262;6.830;2023-08-21T06:23:10;2.85;;;1.30;;
67869;SDS011;54673;52.262;6.830;2023-08-21T06:25:36;4.03;;;1.47;;
67869;SDS011;54673;52.262;6.830;2023-08-21T06:28:02;1.50;;;1.20;;
67869;SDS011;54673;52.262;6.830;2023-08-21T06:30:28;3.08;;;1.35;;
67869;SDS011;54673;52.262;6.830;2023-08-21T06:32:54;2.07;;;1.43;;
67869;SDS011;54673;52.262;6.830;2023-08-21T06:35:19;3.17;;;1.30;;
67869;SDS011;54673;52.262;6.830;2023-08-21T06:37:45;3.83;;;1.37;;
67869;SDS011;54673;52.262;6.830;2023-08-21T06:40:11;4.85;;;1.45;;
67869;SDS011;54673;52.262;6.830;2023-08-21T06:42:36;2.97;;;1.40;;
67869;SDS011;54673;52.262;6.830;2023-08-21T06:45:03;20.02;;;2.45;;
67869;SDS011;54673;52.262;6.830;2023-08-21T06:47:30;52.43;;;4.60;;
67869;SDS011;54673;52.262;6.830;2023-08-21T06:49:56;27.27;;;2.67;;
67869;SDS011;54673;52.262;6.830;2023-08-21T06:52:21;25.05;;;2.88;;
67869;SDS011;54673;52.262;6.830;2023-08-21T06:54:47;22.97;;;2.20;;
67869;SDS011;54673;52.262;6.830;2023-08-21T06:57:13;30.52;;;2.70;;
67869;SDS011;54673;52.262;6.830;2023-08-21T06:59:38;18.93;;;2.13;;
67869;SDS011;54673;52.262;6.830;2023-08-21T07:02:05;12.20;;;1.60;;
67869;SDS011;54673;52.262;6.830;2023-08-21T07:04:31;13.13;;;1.73;;
67869;SDS011;54673;52.262;6.830;2023-08-21T07:06:58;8.10;;;1.75;;
67869;SDS011;54673;52.262;6.830;2023-08-21T07:09:24;15.27;;;2.08;;
67869;SDS011;54673;52.262;6.830;2023-08-21T07:11:50;14.80;;;1.87;;
67869;SDS011;54673;52.262;6.830;2023-08-21T07:14:15;15.87;;;1.73;;
67869;SDS011;54673;52.262;6.830;2023-08-21T07:16:42;9.73;;;1.50;;
67869;SDS011;54673;52.262;6.830;2023-08-21T07:19:08;11.68;;;1.75;;
67869;SDS011;54673;52.262;6.830;2023-08-21T07:21:34;14.33;;;1.73;;
67869;SDS011;54673;52.262;6.830;2023-08-21T07:24:02;7.88;;;1.85;;
67869;SDS011;54673;52.262;6.830;2023-08-21T07:26:28;7.03;;;1.50;;
67869;SDS011;54673;52.262;6.830;2023-08-21T07:28:54;8.47;;;1.67;;
67869;SDS011;54673;52.262;6.830;2023-08-21T07:31:20;7.82;;;1.80;;
67869;SDS011;54673;52.262;6.830;2023-08-21T07:33:45;7.23;;;2.03;;
67869;SDS011;54673;52.262;6.830;2023-08-21T07:36:11;6.55;;;1.52;;
67869;SDS011;54673;52.262;6.830;2023-08-21T07:38:43;4.68;;;1.58;;
67869;SDS011;54673;52.262;6.830;2023-08-21T07:41:09;5.13;;;1.60;;
67869;SDS011;54673;52.262;6.830;2023-08-21T07:43:37;5.97;;;1.77;;
67869;SDS011;54673;52.262;6.830;2023-08-21T07:46:03;4.85;;;1.60;;
67869;SDS011;54673;52.262;6.830;2023-08-21T07:48:30;7.27;;;1.70;;
67869;SDS011;54673;52.262;6.830;2023-08-21T07:50:56;9.13;;;1.90;;
67869;SDS011;54673;52.262;6.830;2023-08-21T07:53:22;6.75;;;1.33;;
67869;SDS011;54673;52.262;6.830;2023-08-21T07:55:49;6.90;;;1.80;;
67869;SDS011;54673;52.262;6.830;2023-08-21T07:58:14;5.53;;;1.50;;
67869;SDS011;54673;52.262;6.830;2023-08-21T08:00:40;5.17;;;1.60;;
67869;SDS011;54673;52.262;6.830;2023-08-21T08:03:07;5.47;;;1.27;;
67869;SDS011;54673;52.262;6.830;2023-08-21T08:05:33;4.90;;;1.27;;
67869;SDS011;54673;52.262;6.830;2023-08-21T08:07:59;2.53;;;1.20;;
67869;SDS011;54673;52.262;6.830;2023-08-21T08:10:25;4.57;;;1.30;;
67869;SDS011;54673;52.262;6.830;2023-08-21T08:12:51;3.20;;;1.10;;
67869;SDS011;54673;52.262;6.830;2023-08-21T08:15:17;3.35;;;1.23;;
67869;SDS011;54673;52.262;6.830;2023-08-21T08:17:43;5.10;;;1.30;;
67869;SDS011;54673;52.262;6.830;2023-08-21T08:20:10;5.82;;;1.55;;
67869;SDS011;54673;52.262;6.830;2023-08-21T08:22:37;6.10;;;1.60;;
67869;SDS011;54673;52.262;6.830;2023-08-21T08:25:03;4.00;;;1.23;;
67869;SDS011;54673;52.262;6.830;2023-08-21T08:27:31;5.63;;;1.40;;
67869;SDS011;54673;52.262;6.830;2023-08-21T08:29:57;6.97;;;1.40;;
67869;SDS011;54673;52.262;6.830;2023-08-21T08:32:22;5.63;;;1.17;;
67869;SDS011;54673;52.262;6.830;2023-08-21T08:34:48;1.83;;;0.83;;
67869;SDS011;54673;52.262;6.830;2023-08-21T08:37:14;10.63;;;1.63;;
67869;SDS011;54673;52.262;6.830;2023-08-21T08:39:39;4.47;;;1.30;;
67869;SDS011;54673;52.262;6.830;2023-08-21T08:42:05;3.63;;;1.50;;
67869;SDS011;54673;52.262;6.830;2023-08-21T08:44:33;5.27;;;1.30;;
67869;SDS011;54673;52.262;6.830;2023-08-21T08:47:01;3.63;;;1.30;;
67869;SDS011;54673;52.262;6.830;2023-08-21T08:49:27;4.40;;;1.50;;
67869;SDS011;54673;52.262;6.830;2023-08-21T08:51:54;5.43;;;1.33;;
67869;SDS011;54673;52.262;6.830;2023-08-21T08:54:21;3.63;;;1.23;;
67869;SDS011;54673;52.262;6.830;2023-08-21T08:56:47;4.63;;;1.20;;
67869;SDS011;54673;52.262;6.830;2023-08-21T08:59:14;3.70;;;1.40;;
67869;SDS011;54673;52.262;6.830;2023-08-21T09:01:40;5.50;;;1.30;;
67869;SDS011;54673;52.262;6.830;2023-08-21T09:04:06;3.95;;;1.20;;
67869;SDS011;54673;52.262;6.830;2023-08-21T09:06:33;4.33;;;1.20;;
67869;SDS011;54673;52.262;6.830;2023-08-21T09:08:59;3.70;;;1.20;;
67869;SDS011;54673;52.262;6.830;2023-08-21T09:11:24;7.00;;;1.83;;
67869;SDS011;54673;52.262;6.830;2023-08-21T09:13:51;2.90;;;1.23;;
67869;SDS011;54673;52.262;6.830;2023-08-21T09:16:19;1.80;;;1.20;;
67869;SDS011;54673;52.262;6.830;2023-08-21T09:18:49;5.60;;;1.58;;
67869;SDS011;54673;52.262;6.830;2023-08-21T09:21:20;6.57;;;2.07;;
67869;SDS011;54673;52.262;6.830;2023-08-21T09:23:48;3.42;;;1.77;;
67869;SDS011;54673;52.262;6.830;2023-08-21T09:26:22;4.75;;;1.50;;
67869;SDS011;54673;52.262;6.830;2023-08-21T09:28:49;8.80;;;1.53;;
67869;SDS011;54673;52.262;6.830;2023-08-21T09:31:16;6.22;;;1.42;;
67869;SDS011;54673;52.262;6.830;2023-08-21T09:33:55;5.60;;;1.48;;
67869;SDS011;54673;52.262;6.830;2023-08-21T09:36:22;3.10;;;1.03;;
67869;SDS011;54673;52.262;6.830;2023-08-21T09:38:50;4.00;;;1.17;;
67869;SDS011;54673;52.262;6.830;2023-08-21T09:41:18;6.25;;;1.30;;
67869;SDS011;54673;52.262;6.830;2023-08-21T09:43:48;4.82;;;1.20;;
67869;SDS011;54673;52.262;6.830;2023-08-21T09:46:14;3.47;;;1.23;;
67869;SDS011;54673;52.262;6.830;2023-08-21T09:48:44;3.45;;;1.20;;
67869;SDS011;54673;52.262;6.830;2023-08-21T09:51:11;3.58;;;1.10;;
67869;SDS011;54673;52.262;6.830;2023-08-21T09:53:36;6.23;;;1.60;;
67869;SDS011;54673;52.262;6.830;2023-08-21T09:56:02;3.55;;;1.30;;
67869;SDS011;54673;52.262;6.830;2023-08-21T09:58:28;7.33;;;1.47;;
67869;SDS011;54673;52.262;6.830;2023-08-21T10:00:58;2.90;;;1.10;;
67869;SDS011;54673;52.262;6.830;2023-08-21T10:03:25;5.00;;;1.75;;
67869;SDS011;54673;52.262;6.830;2023-08-21T10:05:51;3.55;;;1.42;;
67869;SDS011;54673;52.262;6.830;2023-08-21T10:08:24;4.10;;;1.30;;
67869;SDS011;54673;52.262;6.830;2023-08-21T10:10:51;3.17;;;1.20;;
67869;SDS011;54673;52.262;6.830;2023-08-21T10:13:17;7.55;;;1.40;;
67869;SDS011;54673;52.262;6.830;2023-08-21T10:15:43;3.50;;;1.20;;
67869;SDS011;54673;52.262;6.830;2023-08-21T10:20:55;4.90;;;1.40;;
67869;SDS011;54673;52.262;6.830;2023-08-21T10:23:25;5.90;;;1.23;;
67869;SDS011;54673;52.262;6.830;2023-08-21T10:26:01;3.47;;;1.08;;
67869;SDS011;54673;52.262;6.830;2023-08-21T10:31:26;6.77;;;0.93;;
67869;SDS011;54673;52.262;6.830;2023-08-21T10:34:01;5.93;;;1.10;;
67869;SDS011;54673;52.262;6.830;2023-08-21T10:36:38;4.30;;;1.17;;
67869;SDS011;54673;52.262;6.830;2023-08-21T10:49:48;3.10;;;1.30;;
67869;SDS011;54673;52.262;6.830;2023-08-21T10:52:28;4.95;;;1.10;;
67869;SDS011;54673;52.262;6.830;2023-08-21T10:55:00;6.53;;;1.20;;
67869;SDS011;54673;52.262;6.830;2023-08-21T10:57:30;5.70;;;1.13;;
67869;SDS011;54673;52.262;6.830;2023-08-21T11:02:30;12.40;;;1.70;;
67869;SDS011;54673;52.262;6.830;2023-08-21T11:04:58;4.63;;;1.27;;
67869;SDS011;54673;52.262;6.830;2023-08-21T11:07:25;5.77;;;1.30;;
67869;SDS011;54673;52.262;6.830;2023-08-21T11:09:52;3.28;;;0.90;;
67869;SDS011;54673;52.262;6.830;2023-08-21T11:12:19;7.35;;;1.52;;
67869;SDS011;54673;52.262;6.830;2023-08-21T11:14:46;5.73;;;1.30;;
67869;SDS011;54673;52.262;6.830;2023-08-21T11:17:13;7.32;;;1.30;;
67869;SDS011;54673;52.262;6.830;2023-08-21T11:19:39;3.45;;;1.50;;
67869;SDS011;54673;52.262;6.830;2023-08-21T11:22:06;7.00;;;1.77;;
67869;SDS011;54673;52.262;6.830;2023-08-21T11:27:08;4.30;;;1.20;;
67869;SDS011;54673;52.262;6.830;2023-08-21T11:29:36;4.45;;;1.30;;
67869;SDS011;54673;52.262;6.830;2023-08-21T11:32:03;2.77;;;1.10;;
67869;SDS011;54673;52.262;6.830;2023-08-21T11:34:37;3.95;;;1.02;;
67869;SDS011;54673;52.262;6.830;2023-08-21T11:37:04;3.78;;;1.15;;
67869;SDS011;54673;52.262;6.830;2023-08-21T11:39:41;3.07;;;1.60;;
67869;SDS011;54673;52.262;6.830;2023-08-21T11:42:15;3.05;;;1.20;;
67869;SDS011;54673;52.262;6.830;2023-08-21T11:44:48;3.60;;;1.33;;
67869;SDS011;54673;52.262;6.830;2023-08-21T11:47:16;4.57;;;1.30;;
67869;SDS011;54673;52.262;6.830;2023-08-21T11:49:43;3.40;;;1.40;;
67869;SDS011;54673;52.262;6.830;2023-08-21T11:52:12;8.15;;;1.35;;
67869;SDS011;54673;52.262;6.830;2023-08-21T11:54:38;1.67;;;1.20;;
67869;SDS011;54673;52.262;6.830;2023-08-21T11:57:06;4.60;;;1.27;;
67869;SDS011;54673;52.262;6.830;2023-08-21T11:59:33;2.45;;;1.15;;
67869;SDS011;54673;52.262;6.830;2023-08-21T12:02:01;4.15;;;1.20;;
67869;SDS011;54673;52.262;6.830;2023-08-21T12:04:32;3.90;;;1.67;;
67869;SDS011;54673;52.262;6.830;2023-08-21T12:06:58;3.83;;;1.25;;
67869;SDS011;54673;52.262;6.830;2023-08-21T12:09:24;3.83;;;1.17;;
67869;SDS011;54673;52.262;6.830;2023-08-21T12:11:49;5.40;;;1.80;;
67869;SDS011;54673;52.262;6.830;2023-08-21T12:14:15;3.10;;;1.40;;
67869;SDS011;54673;52.262;6.830;2023-08-21T12:16:41;2.50;;;1.10;;
67869;SDS011;54673;52.262;6.830;2023-08-21T12:19:07;2.67;;;1.30;;
67869;SDS011;54673;52.262;6.830;2023-08-21T12:21:34;1.95;;;0.98;;
67869;SDS011;54673;52.262;6.830;2023-08-21T12:24:02;3.72;;;1.25;;
67869;SDS011;54673;52.262;6.830;2023-08-21T12:26:29;3.53;;;1.20;;
67869;SDS011;54673;52.262;6.830;2023-08-21T12:28:55;3.60;;;1.30;;
67869;SDS011;54673;52.262;6.830;2023-08-21T12:31:21;5.80;;;1.60;;
67869;SDS011;54673;52.262;6.830;2023-08-21T12:33:46;2.75;;;1.30;;
67869;SDS011;54673;52.262;6.830;2023-08-21T12:36:12;2.13;;;1.40;;
67869;SDS011;54673;52.262;6.830;2023-08-21T12:38:37;3.75;;;1.40;;
67869;SDS011;54673;52.262;6.830;2023-08-21T12:41:03;2.57;;;1.30;;
67869;SDS011;54673;52.262;6.830;2023-08-21T12:43:29;4.35;;;1.35;;
67869;SDS011;54673;52.262;6.830;2023-08-21T12:45:56;4.70;;;1.30;;
67869;SDS011;54673;52.262;6.830;2023-08-21T12:48:21;4.60;;;1.50;;
67869;SDS011;54673;52.262;6.830;2023-08-21T12:50:47;5.13;;;1.30;;
67869;SDS011;54673;52.262;6.830;2023-08-21T12:53:13;2.22;;;1.20;;
67869;SDS011;54673;52.262;6.830;2023-08-21T12:55:39;6.00;;;1.40;;
67869;SDS011;54673;52.262;6.830;2023-08-21T12:58:04;2.42;;;1.13;;
67869;SDS011;54673;52.262;6.830;2023-08-21T13:00:30;3.27;;;1.60;;
67869;SDS011;54673;52.262;6.830;2023-08-21T13:02:57;4.68;;;1.42;;
67869;SDS011;54673;52.262;6.830;2023-08-21T13:05:23;4.63;;;1.50;;
67869;SDS011;54673;52.262;6.830;2023-08-21T13:07:48;3.58;;;1.45;;
67869;SDS011;54673;52.262;6.830;2023-08-21T13:10:14;2.93;;;1.43;;
67869;SDS011;54673;52.262;6.830;2023-08-21T13:12:39;2.72;;;1.40;;
67869;SDS011;54673;52.262;6.830;2023-08-21T13:15:05;4.20;;;1.60;;
67869;SDS011;54673;52.262;6.830;2023-08-21T13:17:32;2.50;;;1.50;;
67869;SDS011;54673;52.262;6.830;2023-08-21T13:19:59;3.93;;;1.67;;
67869;SDS011;54673;52.262;6.830;2023-08-21T13:22:24;2.73;;;1.40;;
67869;SDS011;54673;52.262;6.830;2023-08-21T13:24:50;3.50;;;1.80;;
67869;SDS011;54673;52.262;6.830;2023-08-21T13:27:15;2.25;;;1.20;;
67869;SDS011;54673;52.262;6.830;2023-08-21T13:29:41;5.00;;;1.70;;
67869;SDS011;54673;52.262;6.830;2023-08-21T13:32:07;2.15;;;1.30;;
67869;SDS011;54673;52.262;6.830;2023-08-21T13:34:33;5.17;;;1.53;;
67869;SDS011;54673;52.262;6.830;2023-08-21T13:36:58;6.55;;;1.42;;
67869;SDS011;54673;52.262;6.830;2023-08-21T13:39:24;3.90;;;1.53;;
67869;SDS011;54673;52.262;6.830;2023-08-21T13:41:51;2.15;;;1.75;;
67869;SDS011;54673;52.262;6.830;2023-08-21T13:44:17;2.40;;;1.10;;
67869;SDS011;54673;52.262;6.830;2023-08-21T13:46:42;5.00;;;1.50;;
67869;SDS011;54673;52.262;6.830;2023-08-21T13:49:08;3.23;;;1.40;;
67869;SDS011;54673;52.262;6.830;2023-08-21T13:51:34;2.95;;;1.30;;
67869;SDS011;54673;52.262;6.830;2023-08-21T13:54:00;3.90;;;1.75;;
67869;SDS011;54673;52.262;6.830;2023-08-21T13:56:27;3.93;;;1.60;;
67869;SDS011;54673;52.262;6.830;2023-08-21T13:58:53;2.83;;;1.30;;
67869;SDS011;54673;52.262;6.830;2023-08-21T14:01:19;2.15;;;1.40;;
67869;SDS011;54673;52.262;6.830;2023-08-21T14:03:44;3.93;;;2.00;;
67869;SDS011;54673;52.262;6.830;2023-08-21T14:06:10;3.97;;;1.50;;
67869;SDS011;54673;52.262;6.830;2023-08-21T14:08:37;2.53;;;1.50;;
67869;SDS011;54673;52.262;6.830;2023-08-21T14:11:03;4.23;;;1.53;;
67869;SDS011;54673;52.262;6.830;2023-08-21T14:13:28;3.93;;;1.50;;
67869;SDS011;54673;52.262;6.830;2023-08-21T14:15:54;3.10;;;1.57;;
67869;SDS011;54673;52.262;6.830;2023-08-21T14:18:20;2.90;;;1.38;;
67869;SDS011;54673;52.262;6.830;2023-08-21T14:20:45;4.38;;;1.80;;
67869;SDS011;54673;52.262;6.830;2023-08-21T14:23:11;4.53;;;2.00;;
67869;SDS011;54673;52.262;6.830;2023-08-21T14:25:44;3.45;;;1.83;;
67869;SDS011;54673;52.262;6.830;2023-08-21T14:28:10;1.67;;;1.33;;
67869;SDS011;54673;52.262;6.830;2023-08-21T14:30:35;2.58;;;1.80;;
67869;SDS011;54673;52.262;6.830;2023-08-21T14:33:01;2.27;;;1.40;;
67869;SDS011;54673;52.262;6.830;2023-08-21T14:35:27;4.10;;;1.88;;
67869;SDS011;54673;52.262;6.830;2023-08-21T14:37:52;3.40;;;2.00;;
67869;SDS011;54673;52.262;6.830;2023-08-21T14:40:18;4.15;;;1.60;;
67869;SDS011;54673;52.262;6.830;2023-08-21T14:42:44;3.33;;;1.80;;
67869;SDS011;54673;52.262;6.830;2023-08-21T14:45:09;3.05;;;1.55;;
67869;SDS011;54673;52.262;6.830;2023-08-21T14:47:36;4.53;;;1.90;;
67869;SDS011;54673;52.262;6.830;2023-08-21T14:50:05;2.67;;;1.83;;
67869;SDS011;54673;52.262;6.830;2023-08-21T14:52:40;2.47;;;1.80;;
67869;SDS011;54673;52.262;6.830;2023-08-21T14:55:09;2.43;;;1.73;;
67869;SDS011;54673;52.262;6.830;2023-08-21T14:57:34;4.60;;;1.83;;
67869;SDS011;54673;52.262;6.830;2023-08-21T15:00:09;2.72;;;1.70;;
67869;SDS011;54673;52.262;6.830;2023-08-21T15:02:44;2.70;;;1.50;;
67869;SDS011;54673;52.262;6.830;2023-08-21T15:05:10;2.60;;;1.60;;
67869;SDS011;54673;52.262;6.830;2023-08-21T15:07:41;2.15;;;1.77;;
67869;SDS011;54673;52.262;6.830;2023-08-21T15:10:07;9.17;;;2.20;;
67869;SDS011;54673;52.262;6.830;2023-08-21T15:12:33;3.35;;;1.60;;
67869;SDS011;54673;52.262;6.830;2023-08-21T15:15:17;3.83;;;2.13;;